Time;durP1;ratioP1;P1;durP2;ratioP2;P2;SDS_P1;SDS_P2;PMS_P1;PMS_P2;Temp;Humidity;BMP_temperature;BMP_pressure;BME280_temperature;BME280_humidity;BME280_pressure;Samples;Min_cycle;Max_cycle;Signal;HPM_P1;HPM_P2
2023/10/10 00:01:03;;;;;;;0.40;0.40;;;20.70;71.10;;;;;;5142519;27;20087;-71
2023/10/10 00:03:34;;;;;;;0.43;0.43;;;20.70;71.20;;;;;;5151712;27;20059;-71
2023/10/10 00:06:05;;;;;;;0.40;0.40;;;20.70;71.20;;;;;;5149433;27;20057;-71
2023/10/10 00:08:36;;;;;;;0.50;0.50;;;20.70;71.20;;;;;;5137735;27;20023;-71
2023/10/10 00:11:14;;;;;;;0.50;0.50;;;20.70;71.30;;;;;;5151653;27;20492;-71
2023/10/10 00:13:43;;;;;;;0.40;0.40;;;20.70;71.30;;;;;;5135000;27;20110;-72
2023/10/10 00:16:35;;;;;;;0.50;0.50;;;20.70;71.30;;;;;;5137720;27;20035;-71
2023/10/10 00:21:46;;;;;;;0.50;0.50;;;20.80;71.30;;;;;;5152832;27;20034;-71
2023/10/10 00:24:14;;;;;;;0.50;0.50;;;20.70;71.30;;;;;;5155242;27;20036;-71
2023/10/10 00:26:42;;;;;;;0.40;0.40;;;20.80;71.40;;;;;;5147364;27;20073;-72
2023/10/10 00:29:09;;;;;;;0.47;0.47;;;20.80;71.30;;;;;;5146671;27;20023;-71
2023/10/10 00:31:43;;;;;;;0.40;0.40;;;20.80;71.30;;;;;;5155549;27;20026;-71
2023/10/10 00:34:09;;;;;;;0.40;0.40;;;20.80;71.30;;;;;;5137893;27;20021;-71
2023/10/10 00:36:36;;;;;;;0.63;0.63;;;20.90;71.30;;;;;;5155323;27;20079;-71
2023/10/10 00:39:08;;;;;;;0.40;0.40;;;20.90;71.30;;;;;;5137407;27;20015;-71
2023/10/10 00:41:51;;;;;;;0.40;0.40;;;20.90;71.30;;;;;;5150494;27;20113;-71
2023/10/10 00:44:18;;;;;;;4.95;0.70;;;20.90;71.30;;;;;;5139009;27;20433;-71
2023/10/10 00:46:47;;;;;;;0.40;0.40;;;20.90;71.20;;;;;;5154423;27;20031;-69
2023/10/10 00:49:17;;;;;;;0.40;0.40;;;20.90;71.20;;;;;;5141725;27;20483;-69
2023/10/10 00:51:47;;;;;;;0.65;0.65;;;21.00;71.10;;;;;;5151492;27;20883;-71
2023/10/10 00:56:59;;;;;;;0.40;0.40;;;21.00;71.10;;;;;;5155096;27;20022;-71
2023/10/10 00:59:35;;;;;;;0.40;0.40;;;21.00;71.10;;;;;;5140198;27;20016;-71
2023/10/10 01:02:03;;;;;;;0.50;0.50;;;20.90;71.10;;;;;;5154299;27;20037;-71
2023/10/10 01:04:35;;;;;;;0.45;0.45;;;21.00;71.20;;;;;;5154412;27;20037;-71
2023/10/10 01:07:03;;;;;;;0.38;0.38;;;20.90;71.20;;;;;;5143419;27;20035;-71
2023/10/10 01:09:33;;;;;;;0.40;0.40;;;21.00;71.20;;;;;;5148699;27;20015;-70
2023/10/10 01:12:05;;;;;;;0.50;0.50;;;21.00;71.20;;;;;;5152429;27;20033;-71
2023/10/10 01:14:32;;;;;;;0.73;0.73;;;21.00;71.20;;;;;;5144736;27;20495;-71
2023/10/10 01:16:58;;;;;;;0.40;0.40;;;21.00;71.20;;;;;;5142438;27;20034;-71
2023/10/10 01:19:29;;;;;;;0.40;0.40;;;21.00;71.20;;;;;;5133669;27;20064;-70
2023/10/10 01:21:58;;;;;;;0.30;0.30;;;21.00;71.20;;;;;;5153212;27;20030;-71
2023/10/10 01:24:25;;;;;;;0.70;0.70;;;21.10;71.20;;;;;;5154309;27;20023;-71
2023/10/10 01:26:52;;;;;;;0.50;0.50;;;21.10;71.20;;;;;;5144483;27;20031;-71
2023/10/10 01:29:25;;;;;;;0.50;0.50;;;21.10;71.10;;;;;;5146680;27;20199;-71
2023/10/10 01:31:52;;;;;;;0.40;0.40;;;21.10;71.10;;;;;;5152451;27;20019;-70
2023/10/10 01:34:31;;;;;;;0.40;0.40;;;21.10;71.10;;;;;;5138022;27;20403;-71
2023/10/10 01:39:54;;;;;;;0.35;0.35;;;21.10;71.20;;;;;;5137464;27;20479;-70
2023/10/10 01:42:31;;;;;;;0.40;0.40;;;21.10;71.20;;;;;;5138955;27;20056;-70
2023/10/10 01:44:59;;;;;;;0.40;0.40;;;21.10;71.20;;;;;;5154105;27;20022;-70
2023/10/10 01:47:28;;;;;;;0.35;0.35;;;21.10;71.20;;;;;;5139030;27;20484;-70
2023/10/10 01:49:58;;;;;;;0.40;0.40;;;21.10;71.10;;;;;;5151510;27;20033;-70
2023/10/10 01:52:25;;;;;;;0.50;0.50;;;21.10;71.10;;;;;;5148340;27;20125;-71
2023/10/10 01:54:53;;;;;;;0.45;0.45;;;21.10;71.10;;;;;;5141986;27;20560;-70
2023/10/10 01:57:23;;;;;;;0.50;0.50;;;21.10;71.00;;;;;;5153915;27;20026;-70
2023/10/10 01:59:51;;;;;;;0.40;0.40;;;21.10;70.90;;;;;;5136106;27;20480;-70
2023/10/10 02:02:21;;;;;;;0.45;0.45;;;21.10;70.80;;;;;;5153894;27;20091;-71
2023/10/10 02:04:47;;;;;;;0.55;0.55;;;21.00;70.90;;;;;;5144231;27;20049;-72
2023/10/10 02:07:23;;;;;;;0.50;0.50;;;21.00;70.90;;;;;;5145362;27;20117;-71
2023/10/10 02:12:34;;;;;;;0.50;0.50;;;21.00;70.90;;;;;;5140143;27;20041;-71
2023/10/10 02:15:01;;;;;;;0.50;0.50;;;21.00;71.00;;;;;;5153425;27;20105;-70
2023/10/10 02:17:29;;;;;;;0.40;0.40;;;21.00;71.00;;;;;;5150667;27;20110;-69
2023/10/10 02:22:49;;;;;;;0.40;0.40;;;21.00;71.10;;;;;;5152136;27;20505;-67
2023/10/10 02:27:57;;;;;;;0.50;0.50;;;21.00;71.10;;;;;;5149790;27;20035;-72
2023/10/10 02:30:40;;;;;;;0.68;0.68;;;21.00;71.10;;;;;;5137934;27;20019;-70
2023/10/10 02:33:30;;;;;;;0.40;0.40;;;21.00;71.10;;;;;;5144442;27;20077;-70
2023/10/10 02:35:56;;;;;;;0.40;0.40;;;21.00;71.10;;;;;;5135400;27;20092;-70
2023/10/10 02:38:32;;;;;;;0.40;0.40;;;21.00;71.00;;;;;;5143610;27;20019;-70
2023/10/10 02:43:55;;;;;;;0.40;0.40;;;21.00;71.00;;;;;;5149053;27;20336;-70
2023/10/10 02:46:33;;;;;;;0.50;0.50;;;21.00;71.00;;;;;;5152376;27;20387;-70
2023/10/10 02:49:02;;;;;;;0.30;0.30;;;21.00;71.00;;;;;;5141566;27;20031;-70
2023/10/10 02:51:27;;;;;;;0.40;0.40;;;21.00;71.00;;;;;;5146895;27;20368;-70
2023/10/10 02:53:53;;;;;;;0.40;0.40;;;20.90;71.00;;;;;;5150874;27;20034;-70
2023/10/10 02:56:20;;;;;;;0.60;0.60;;;20.90;70.90;;;;;;5136754;27;20023;-71
2023/10/10 02:58:48;;;;;;;0.47;0.47;;;20.90;70.90;;;;;;5142058;27;20035;-70
2023/10/10 03:04:17;;;;;;;0.80;0.80;;;20.80;70.60;;;;;;5108868;28;20449;-71
2023/10/10 03:06:44;;;;;;;0.77;0.70;;;20.70;70.50;;;;;;5141142;27;20266;-71
2023/10/10 03:09:28;;;;;;;0.50;0.50;;;20.70;70.50;;;;;;5152181;27;20055;-71
2023/10/10 03:12:03;;;;;;;0.50;0.50;;;20.60;70.30;;;;;;5135371;27;20054;-71
2023/10/10 03:14:32;;;;;;;0.40;0.40;;;20.50;70.20;;;;;;5152533;27;20018;-70
2023/10/10 03:17:31;;;;;;;0.40;0.40;;;20.40;70.20;;;;;;5149596;27;20460;-71
2023/10/10 03:20:02;;;;;;;0.40;0.40;;;20.40;70.30;;;;;;5150920;27;20548;-70
2023/10/10 03:22:31;;;;;;;0.40;0.40;;;20.30;70.50;;;;;;5138332;27;20023;-71
2023/10/10 03:25:20;;;;;;;0.57;0.57;;;20.30;70.70;;;;;;5152190;27;20036;-70
2023/10/10 03:27:54;;;;;;;0.70;0.70;;;20.30;70.90;;;;;;5152284;27;20022;-71
2023/10/10 03:33:16;;;;;;;1.38;1.10;;;20.30;71.10;;;;;;5143432;27;20046;-68
2023/10/10 03:36:08;;;;;;;0.50;0.50;;;20.30;71.10;;;;;;5134792;27;20471;-68
2023/10/10 05:25:08;;;;;;;0.63;0.63;;;19.70;71.00;;;;;;5152079;27;20038;-70
2023/10/10 05:27:41;;;;;;;0.93;0.88;;;19.70;71.10;;;;;;5152180;27;20062;-71
2023/10/10 05:30:07;;;;;;;0.80;0.80;;;19.70;70.90;;;;;;5152764;27;20042;-71
2023/10/10 05:32:33;;;;;;;1.65;0.88;;;19.60;70.70;;;;;;5142910;27;20546;-70
2023/10/10 05:34:58;;;;;;;0.70;0.70;;;19.60;70.50;;;;;;5147140;27;20051;-70
2023/10/10 05:37:25;;;;;;;1.25;0.82;;;19.60;70.50;;;;;;5135645;27;20420;-70
2023/10/10 05:39:56;;;;;;;0.95;0.95;;;19.50;70.50;;;;;;5150112;27;20022;-70
2023/10/10 05:42:26;;;;;;;1.20;1.15;;;19.50;70.60;;;;;;5139001;27;20446;-71
2023/10/10 05:44:52;;;;;;;0.90;0.90;;;19.40;70.60;;;;;;5153975;27;20117;-71
2023/10/10 05:47:18;;;;;;;1.00;0.98;;;19.40;70.70;;;;;;5148993;27;20071;-71
2023/10/10 05:49:46;;;;;;;2.85;1.50;;;19.40;70.90;;;;;;5150453;27;20014;-68
2023/10/10 05:52:12;;;;;;;1.90;1.80;;;19.40;71.10;;;;;;5139459;27;20041;-69
2023/10/10 05:54:38;;;;;;;1.20;1.05;;;19.40;71.50;;;;;;5146346;27;20456;-70
2023/10/10 05:57:05;;;;;;;0.80;0.80;;;19.50;71.70;;;;;;5144578;27;20571;-68
2023/10/10 05:59:32;;;;;;;1.02;0.93;;;19.60;71.80;;;;;;5152230;27;20380;-69
2023/10/10 06:01:57;;;;;;;4.57;3.10;;;19.70;71.80;;;;;;5148593;27;20022;-69
2023/10/10 06:04:23;;;;;;;1.70;1.30;;;19.80;71.90;;;;;;5150899;27;20055;-68
2023/10/10 06:06:48;;;;;;;2.15;1.55;;;19.80;71.90;;;;;;5138466;27;20023;-68
2023/10/10 06:09:18;;;;;;;1.13;1.02;;;19.90;71.90;;;;;;5153077;27;20163;-68
2023/10/10 06:11:47;;;;;;;1.50;1.40;;;20.00;71.90;;;;;;5149142;27;20019;-68
2023/10/10 06:14:12;;;;;;;1.00;1.00;;;20.00;71.70;;;;;;5151477;27;20114;-68
2023/10/10 06:16:38;;;;;;;1.35;1.25;;;20.10;71.70;;;;;;5153036;27;20499;-68
2023/10/10 06:19:04;;;;;;;0.80;0.80;;;20.20;71.80;;;;;;5146044;27;20040;-68
2023/10/10 06:21:29;;;;;;;0.80;0.80;;;20.30;71.60;;;;;;5146459;27;20468;-69
2023/10/10 06:23:55;;;;;;;0.93;0.93;;;20.30;71.60;;;;;;5152853;27;20072;-69
2023/10/10 06:26:21;;;;;;;5.32;2.10;;;20.30;71.70;;;;;;5152872;27;20035;-68
2023/10/10 06:28:53;;;;;;;0.63;0.63;;;20.40;71.60;;;;;;5152668;27;20391;-68
2023/10/10 06:31:19;;;;;;;1.17;1.15;;;20.40;71.60;;;;;;5139455;27;20042;-68
2023/10/10 06:33:51;;;;;;;1.88;1.55;;;20.40;71.60;;;;;;5149455;27;20353;-68
2023/10/10 06:38:59;;;;;;;3.08;1.50;;;20.60;71.70;;;;;;5143409;27;20026;-68
2023/10/10 06:41:28;;;;;;;1.30;1.23;;;20.60;71.70;;;;;;5138253;27;20031;-69
2023/10/10 06:43:54;;;;;;;1.42;1.33;;;20.70;71.60;;;;;;5152856;27;20023;-68
2023/10/10 06:46:19;;;;;;;1.63;1.50;;;20.70;71.60;;;;;;5152101;27;20030;-68
2023/10/10 06:48:47;;;;;;;1.70;1.55;;;20.70;71.50;;;;;;5152436;27;20538;-68
2023/10/10 06:51:15;;;;;;;2.45;2.03;;;20.80;71.30;;;;;;5152165;27;20038;-68
2023/10/10 06:53:45;;;;;;;1.55;1.42;;;20.80;71.60;;;;;;5152523;27;20029;-68
2023/10/10 06:56:17;;;;;;;2.47;1.75;;;20.80;71.70;;;;;;5145638;27;20467;-68
2023/10/10 06:58:44;;;;;;;0.50;0.50;;;20.90;71.70;;;;;;5152441;27;20026;-71
2023/10/10 07:01:11;;;;;;;2.63;1.88;;;21.00;71.70;;;;;;5151753;27;20383;-71
2023/10/10 07:03:46;;;;;;;1.75;1.65;;;21.00;71.50;;;;;;5152540;27;20033;-71
2023/10/10 07:06:12;;;;;;;3.47;1.35;;;21.00;71.60;;;;;;5138294;27;20026;-71
2023/10/10 07:08:37;;;;;;;1.38;1.27;;;21.00;71.40;;;;;;5144466;27;20034;-71
2023/10/10 07:11:03;;;;;;;1.50;1.33;;;21.10;71.40;;;;;;5141995;27;20043;-70
2023/10/10 07:13:35;;;;;;;1.48;1.20;;;21.10;71.30;;;;;;5147013;27;20028;-71
2023/10/10 07:16:01;;;;;;;1.83;1.73;;;21.00;71.30;;;;;;5152021;27;20447;-71
2023/10/10 07:18:27;;;;;;;1.90;1.58;;;21.10;71.30;;;;;;5141027;27;20026;-71
2023/10/10 07:23:41;;;;;;;1.45;1.35;;;21.20;71.50;;;;;;5147983;27;20403;-70
2023/10/10 07:26:23;;;;;;;3.22;2.10;;;21.20;71.70;;;;;;5149188;27;20065;-71
2023/10/10 07:28:49;;;;;;;2.63;1.85;;;21.30;71.90;;;;;;5152086;27;20030;-71
2023/10/10 07:31:21;;;;;;;1.70;1.60;;;21.30;71.70;;;;;;5143306;27;20106;-71
2023/10/10 07:34:15;;;;;;;0.98;0.93;;;21.40;72.00;;;;;;5152394;27;20075;-71
2023/10/10 07:36:43;;;;;;;2.17;1.65;;;21.50;72.10;;;;;;5142759;27;20115;-71
2023/10/10 07:41:53;;;;;;;3.05;2.75;;;21.70;71.70;;;;;;5145229;27;20100;-71
2023/10/10 07:44:22;;;;;;;2.83;2.13;;;21.80;72.00;;;;;;5155797;27;20271;-71
2023/10/10 07:47:43;;;;;;;1.23;1.10;;;21.90;72.00;;;;;;5156088;27;20069;-71
2023/10/10 07:49:34;;;;;;;2.47;1.90;;;22.10;72.10;;;;;;5132614;27;20035;-71
2023/10/10 07:52:02;;;;;;;1.73;1.63;;;22.30;71.80;;;;;;5153232;27;20026;-72
2023/10/10 07:54:34;;;;;;;2.25;1.88;;;22.40;72.10;;;;;;5149445;27;20456;-72
2023/10/10 07:57:07;;;;;;;4.00;1.83;;;22.60;72.40;;;;;;5138500;27;20027;-70
2023/10/10 07:59:36;;;;;;;1.75;1.50;;;22.80;72.60;;;;;;5156268;27;20028;-71
2023/10/10 08:02:20;;;;;;;0.93;0.93;;;23.10;72.50;;;;;;5146895;27;20026;-71
2023/10/10 08:04:50;;;;;;;3.10;2.15;;;23.30;72.40;;;;;;5142279;27;20022;-71
2023/10/10 08:07:20;;;;;;;1.77;1.67;;;23.60;72.30;;;;;;5152719;27;20023;-71
2023/10/10 08:09:46;;;;;;;3.28;2.97;;;23.90;72.00;;;;;;5155448;27;20023;-71
2023/10/10 08:12:13;;;;;;;1.92;1.83;;;24.00;70.10;;;;;;5138810;27;20487;-71
2023/10/10 08:14:39;;;;;;;2.60;1.45;;;23.90;70.70;;;;;;5146601;27;20027;-71
2023/10/10 08:17:18;;;;;;;3.00;1.70;;;23.90;70.20;;;;;;5149426;27;20603;-71
2023/10/10 08:19:51;;;;;;;2.60;1.58;;;23.90;70.20;;;;;;5138380;27;20105;-71
2023/10/10 08:22:18;;;;;;;3.03;2.60;;;23.90;69.70;;;;;;5155095;27;20026;-71
2023/10/10 08:24:44;;;;;;;1.98;1.88;;;23.80;69.90;;;;;;5145398;27;20031;-71
2023/10/10 08:27:11;;;;;;;1.83;1.25;;;23.70;69.70;;;;;;5145176;27;20038;-71
2023/10/10 08:29:38;;;;;;;1.67;1.45;;;23.80;70.30;;;;;;5139222;27;20015;-71
2023/10/10 08:32:05;;;;;;;3.33;1.92;;;23.80;70.60;;;;;;5154393;27;20441;-71
2023/10/10 08:34:31;;;;;;;4.03;2.35;;;23.90;69.80;;;;;;5148415;27;20429;-70
2023/10/10 08:37:03;;;;;;;2.08;1.90;;;23.90;70.20;;;;;;5145002;27;20352;-71
2023/10/10 08:39:35;;;;;;;1.85;1.70;;;24.00;70.40;;;;;;5149565;27;20046;-71
2023/10/10 08:42:05;;;;;;;2.70;2.40;;;24.00;69.70;;;;;;5148196;27;20027;-71
2023/10/10 08:44:36;;;;;;;5.13;2.38;;;24.00;69.90;;;;;;5152843;27;20122;-71
2023/10/10 08:47:03;;;;;;;1.15;1.13;;;24.00;70.40;;;;;;5149019;27;20479;-71
2023/10/10 08:49:29;;;;;;;3.47;2.65;;;24.20;70.60;;;;;;5147628;27;20015;-71
2023/10/10 08:52:00;;;;;;;1.48;1.38;;;24.20;69.70;;;;;;5153086;27;20455;-71
2023/10/10 08:54:27;;;;;;;2.20;2.00;;;24.30;69.80;;;;;;5154610;27;20023;-71
2023/10/10 08:57:21;;;;;;;2.00;1.50;;;24.30;69.30;;;;;;5152808;27;20114;-71
2023/10/10 08:59:42;;;;;;;2.20;1.17;;;24.20;69.50;;;;;;5154648;27;20083;-72
2023/10/10 09:02:17;;;;;;;4.32;3.22;;;24.30;70.10;;;;;;5137487;27;20019;-71
2023/10/10 09:04:43;;;;;;;4.97;3.22;;;24.30;68.70;;;;;;5155128;27;20027;-71
2023/10/10 09:07:19;;;;;;;2.17;1.95;;;24.30;68.50;;;;;;5154717;27;20033;-71
2023/10/10 09:09:54;;;;;;;2.40;1.80;;;24.50;69.50;;;;;;5147737;27;20019;-71
2023/10/10 09:12:20;;;;;;;7.15;2.55;;;24.80;71.20;;;;;;5154092;27;20034;-71
2023/10/10 09:14:52;;;;;;;1.83;1.73;;;25.10;71.90;;;;;;5144113;27;20020;-72
2023/10/10 09:17:40;;;;;;;2.45;1.52;;;25.60;73.20;;;;;;5150026;27;20034;-72
2023/10/10 09:20:22;;;;;;;1.45;1.35;;;26.10;73.60;;;;;;5137247;27;20027;-71
2023/10/10 09:22:51;;;;;;;2.03;1.88;;;26.60;72.80;;;;;;5154403;27;20518;-72
2023/10/10 09:28:43;;;;;;;1.55;1.45;;;27.70;73.00;;;;;;5117842;27;20028;-72
2023/10/10 09:31:19;;;;;;;0.93;0.93;;;28.30;72.60;;;;;;5130647;27;20035;-72
2023/10/10 09:33:46;;;;;;;4.03;2.42;;;28.90;72.00;;;;;;5145748;27;20048;-72
2023/10/10 09:36:15;;;;;;;0.95;0.95;;;29.30;67.10;;;;;;5137368;27;20456;-72
2023/10/10 09:38:46;;;;;;;1.40;1.30;;;29.40;67.30;;;;;;5135211;27;20034;-72
2023/10/10 09:57:42;;;;;;;2.05;1.80;;;28.20;59.30;;;;;;5149683;27;20206;-71
2023/10/10 10:00:15;;;;;;;1.63;1.27;;;28.20;60.30;;;;;;5136813;27;20114;-70
2023/10/10 10:02:43;;;;;;;3.65;2.15;;;28.20;59.10;;;;;;5143312;27;20486;-71
2023/10/10 10:05:15;;;;;;;3.38;2.00;;;28.10;57.60;;;;;;5137663;27;20460;-71
2023/10/10 10:07:56;;;;;;;2.08;1.50;;;27.90;58.50;;;;;;5145858;27;20471;-71
2023/10/10 10:10:46;;;;;;;1.90;1.65;;;28.00;59.90;;;;;;5138992;27;20482;-71
2023/10/10 10:13:37;;;;;;;0.93;0.90;;;28.20;60.80;;;;;;5133666;27;20015;-71
2023/10/10 10:16:34;;;;;;;2.30;1.65;;;28.50;61.40;;;;;;5150720;27;20429;-71
2023/10/10 10:19:14;;;;;;;4.32;1.80;;;28.80;60.90;;;;;;5138590;27;20050;-71
2023/10/10 10:22:08;;;;;;;0.90;0.90;;;29.20;61.30;;;;;;5135380;27;20027;-71
2023/10/10 10:24:52;;;;;;;1.42;1.33;;;29.50;60.70;;;;;;5133397;27;20026;-71
2023/10/10 10:29:56;;;;;;;1.73;1.17;;;30.10;55.30;;;;;;5153427;27;20023;-71
2023/10/10 10:32:25;;;;;;;0.82;0.82;;;30.10;53.80;;;;;;5148515;27;20538;-71
2023/10/10 10:34:56;;;;;;;1.23;1.13;;;30.10;54.40;;;;;;5143961;27;20031;-72
2023/10/10 10:37:23;;;;;;;2.45;1.58;;;30.10;53.90;;;;;;5140206;27;20085;-71
2023/10/10 10:42:50;;;;;;;4.40;1.77;;;30.10;51.50;;;;;;5153783;27;20075;-71
2023/10/10 10:45:34;;;;;;;5.03;1.48;;;30.00;50.90;;;;;;5141860;27;20031;-71
2023/10/10 10:48:06;;;;;;;3.15;1.38;;;30.00;50.60;;;;;;5151415;27;20034;-71
2023/10/10 10:50:42;;;;;;;7.13;2.20;;;30.20;51.70;;;;;;5138242;27;20023;-71
2023/10/10 11:01:21;;;;;;;3.58;1.50;;;31.20;48.90;;;;;;5150910;27;20038;-71
2023/10/10 11:03:51;;;;;;;1.73;1.13;;;31.40;49.80;;;;;;5153501;27;20026;-71
2023/10/10 11:06:20;;;;;;;2.70;1.10;;;31.80;48.90;;;;;;5133806;27;20031;-71
2023/10/10 11:16:46;;;;;;;1.50;1.40;;;32.30;45.20;;;;;;5139621;27;20048;-69
2023/10/10 11:22:00;;;;;;;0.75;0.75;;;32.30;45.10;;;;;;5152552;27;20034;-70
2023/10/10 11:24:31;;;;;;;1.00;1.00;;;32.50;44.60;;;;;;5146244;27;20562;-68
2023/10/10 11:29:45;;;;;;;1.92;1.60;;;32.40;43.30;;;;;;5147248;27;20023;-68
2023/10/10 11:32:16;;;;;;;1.00;1.00;;;32.20;41.60;;;;;;5135434;27;20400;-68
2023/10/10 11:34:45;;;;;;;1.00;1.00;;;32.00;42.20;;;;;;5148805;27;20425;-68
2023/10/10 11:37:23;;;;;;;2.00;1.52;;;31.70;41.50;;;;;;5137899;27;20484;-70
2023/10/10 11:39:57;;;;;;;3.80;2.05;;;31.50;42.50;;;;;;5149908;27;20019;-71
2023/10/10 11:42:30;;;;;;;0.82;0.82;;;31.30;41.70;;;;;;5152935;27;20023;-71
2023/10/10 11:45:06;;;;;;;2.10;1.77;;;31.10;42.30;;;;;;5140114;27;20027;-70
2023/10/10 11:47:42;;;;;;;1.27;1.17;;;30.80;43.10;;;;;;5150700;27;20026;-70
2023/10/10 11:50:11;;;;;;;1.20;1.10;;;30.70;43.70;;;;;;5155342;27;20026;-70
2023/10/10 11:52:57;;;;;;;0.80;0.80;;;30.50;44.10;;;;;;5151906;27;20110;-69
2023/10/10 11:55:28;;;;;;;2.10;1.85;;;30.30;44.50;;;;;;5145468;27;20053;-69
2023/10/10 11:57:58;;;;;;;5.78;1.13;;;30.30;44.10;;;;;;5148458;27;20114;-69
2023/10/10 12:00:42;;;;;;;1.53;1.27;;;30.10;44.40;;;;;;5149571;27;20394;-69
2023/10/10 12:03:08;;;;;;;1.75;1.33;;;30.00;44.60;;;;;;5143437;27;20019;-70
2023/10/10 12:08:01;;;;;;;1.33;1.20;;;29.90;44.30;;;;;;5137241;27;20027;-69
2023/10/10 12:13:12;;;;;;;1.50;1.00;;;29.80;43.80;;;;;;5150937;27;20053;-69
2023/10/10 12:15:40;;;;;;;1.23;1.13;;;29.60;43.60;;;;;;5153486;27;20030;-68
2023/10/10 12:18:13;;;;;;;1.13;0.63;;;29.40;44.50;;;;;;5152464;27;20034;-69
2023/10/10 12:20:43;;;;;;;2.70;1.35;;;29.40;44.90;;;;;;5146480;27;20045;-69
2023/10/10 12:23:12;;;;;;;1.30;1.20;;;29.40;44.50;;;;;;5147421;27;20067;-69
2023/10/10 12:25:41;;;;;;;0.50;0.50;;;29.30;45.20;;;;;;5138274;27;20518;-69
2023/10/10 12:28:12;;;;;;;1.50;1.30;;;29.40;45.50;;;;;;5155146;27;20023;-69
2023/10/10 12:30:42;;;;;;;4.55;1.27;;;29.50;45.40;;;;;;5147940;27;20035;-69
2023/10/10 12:33:08;;;;;;;1.77;1.45;;;29.50;45.70;;;;;;5152289;27;20038;-69
2023/10/10 12:35:35;;;;;;;6.85;1.85;;;29.60;45.80;;;;;;5154002;27;20039;-69
2023/10/10 12:38:01;;;;;;;0.95;0.85;;;29.60;45.80;;;;;;5145980;27;20476;-69
2023/10/10 12:40:29;;;;;;;0.70;0.70;;;29.60;46.00;;;;;;5154800;27;20018;-69
2023/10/10 12:42:55;;;;;;;0.80;0.70;;;29.70;46.00;;;;;;5149338;27;20023;-69
2023/10/10 12:45:20;;;;;;;0.65;0.65;;;29.60;45.70;;;;;;5154934;27;20038;-69
2023/10/10 12:47:48;;;;;;;1.90;1.10;;;29.60;45.10;;;;;;5153365;27;20031;-70
2023/10/10 12:50:14;;;;;;;0.75;0.70;;;29.60;44.60;;;;;;5156002;27;20026;-70
2023/10/10 12:52:46;;;;;;;7.13;2.15;;;29.60;45.00;;;;;;5155834;27;20019;-70
2023/10/10 12:55:12;;;;;;;0.63;0.63;;;29.60;45.30;;;;;;5152669;27;20580;-70
2023/10/10 12:57:39;;;;;;;1.75;1.40;;;29.70;45.10;;;;;;5150314;27;20034;-70
2023/10/10 13:03:06;;;;;;;0.73;0.73;;;29.80;43.60;;;;;;5113789;27;20050;-70
2023/10/10 13:05:33;;;;;;;4.38;1.30;;;29.70;43.40;;;;;;5149394;27;20468;-70
2023/10/10 13:07:59;;;;;;;1.85;1.05;;;29.70;42.60;;;;;;5138662;27;20019;-70
2023/10/10 13:10:30;;;;;;;1.30;1.00;;;29.70;42.20;;;;;;5154464;27;20051;-69
2023/10/10 13:12:56;;;;;;;2.25;1.48;;;29.70;42.50;;;;;;5155498;27;20027;-69
2023/10/10 13:15:29;;;;;;;0.40;0.40;;;29.70;42.80;;;;;;5141565;27;20035;-69
2023/10/10 13:18:19;;;;;;;0.60;0.60;;;29.80;43.60;;;;;;5152733;27;20490;-69
2023/10/10 13:20:47;;;;;;;0.75;0.75;;;29.80;43.70;;;;;;5154419;27;20059;-69
2023/10/10 13:23:13;;;;;;;0.77;0.77;;;30.00;42.50;;;;;;5155103;27;20029;-70
2023/10/10 13:25:39;;;;;;;0.80;0.80;;;30.00;42.40;;;;;;5152946;27;20039;-69
2023/10/10 13:28:09;;;;;;;1.67;1.58;;;30.00;42.40;;;;;;5153509;27;20019;-69
2023/10/10 13:30:41;;;;;;;1.20;1.02;;;29.90;42.60;;;;;;5152933;27;20407;-70
2023/10/10 13:33:07;;;;;;;0.55;0.55;;;29.90;42.30;;;;;;5143209;27;20102;-69
2023/10/10 13:35:37;;;;;;;0.80;0.80;;;29.80;41.40;;;;;;5135176;27;21021;-70
2023/10/10 13:38:05;;;;;;;0.40;0.40;;;29.70;41.10;;;;;;5137891;27;20016;-69
2023/10/10 13:40:37;;;;;;;0.75;0.75;;;29.50;41.00;;;;;;5155348;27;20479;-69
2023/10/10 13:43:08;;;;;;;0.50;0.50;;;29.30;40.80;;;;;;5153329;27;20502;-69
2023/10/10 13:45:38;;;;;;;0.57;0.57;;;29.20;40.80;;;;;;5155116;27;20031;-69
2023/10/10 13:48:08;;;;;;;1.10;0.95;;;29.00;41.00;;;;;;5152231;27;20121;-69
2023/10/10 13:50:41;;;;;;;;;;;28.80;41.50;;;;;;5148055;27;20396;-69
2023/10/10 13:53:07;;;;;;;0.68;0.68;;;28.70;41.70;;;;;;5147059;27;20479;-69
2023/10/10 13:55:38;;;;;;;3.33;1.65;;;28.50;41.60;;;;;;5149620;27;20031;-70
2023/10/10 13:58:07;;;;;;;0.80;0.80;;;28.30;42.00;;;;;;5151380;27;20022;-69
2023/10/10 14:00:45;;;;;;;0.57;0.57;;;28.20;42.40;;;;;;5153915;27;20433;-69
2023/10/10 14:03:14;;;;;;;2.05;0.93;;;28.10;43.00;;;;;;5153330;27;20022;-69
2023/10/10 14:06:00;;;;;;;0.80;0.80;;;28.00;43.30;;;;;;5137241;27;20034;-69
2023/10/10 14:08:26;;;;;;;0.60;0.60;;;28.00;43.70;;;;;;5135495;27;20068;-68
2023/10/10 14:10:59;;;;;;;0.60;0.60;;;27.90;43.60;;;;;;5152797;27;20030;-69
2023/10/10 14:13:25;;;;;;;1.40;1.30;;;27.80;43.00;;;;;;5153834;27;20023;-69
2023/10/10 14:15:55;;;;;;;0.80;0.80;;;27.80;43.10;;;;;;5139038;27;20019;-69
2023/10/10 14:18:29;;;;;;;1.65;0.82;;;27.70;43.40;;;;;;5153050;27;20429;-69
2023/10/10 14:20:56;;;;;;;1.02;0.90;;;27.60;43.50;;;;;;5153990;27;20471;-69
2023/10/10 14:23:26;;;;;;;1.20;1.02;;;27.60;43.60;;;;;;5152274;27;20026;-69
2023/10/10 14:26:03;;;;;;;0.50;0.50;;;27.60;43.40;;;;;;5153726;27;20087;-69
2023/10/10 14:28:29;;;;;;;3.60;1.00;;;27.50;43.30;;;;;;5149233;27;20023;-70
2023/10/10 14:30:57;;;;;;;2.05;1.20;;;27.50;43.30;;;;;;5149734;27;20036;-69
2023/10/10 14:33:22;;;;;;;0.32;0.32;;;27.50;43.20;;;;;;5147063;27;20023;-69
2023/10/10 14:35:49;;;;;;;0.82;0.82;;;27.40;43.20;;;;;;5148759;27;20368;-69
2023/10/10 14:38:15;;;;;;;0.82;0.82;;;27.40;42.80;;;;;;5142655;27;20090;-67
2023/10/10 14:40:45;;;;;;;1.05;0.93;;;27.30;42.90;;;;;;5153403;27;20491;-70
2023/10/10 14:43:11;;;;;;;1.03;0.93;;;27.30;43.20;;;;;;5151522;27;20128;-70
2023/10/10 14:45:43;;;;;;;0.77;0.77;;;27.30;43.10;;;;;;5151758;27;20447;-70
2023/10/10 14:48:18;;;;;;;0.80;0.80;;;27.30;42.50;;;;;;5134461;27;20102;-70
2023/10/10 14:50:44;;;;;;;1.00;0.80;;;27.20;42.50;;;;;;5140956;27;20030;-70
2023/10/10 14:53:10;;;;;;;0.85;0.77;;;27.20;42.70;;;;;;5150019;27;20019;-70
2023/10/10 14:55:45;;;;;;;0.70;0.70;;;27.10;42.60;;;;;;5146438;27;20045;-70
2023/10/10 14:58:12;;;;;;;0.50;0.50;;;27.00;42.60;;;;;;5141011;27;20048;-70
2023/10/10 15:00:44;;;;;;;0.60;0.60;;;27.00;42.70;;;;;;5152893;27;20528;-69
2023/10/10 15:03:15;;;;;;;0.50;0.50;;;27.00;42.90;;;;;;5152937;27;20019;-70
2023/10/10 15:05:50;;;;;;;0.60;0.60;;;27.00;43.00;;;;;;5153268;27;20057;-70
2023/10/10 15:08:16;;;;;;;0.65;0.65;;;27.10;43.00;;;;;;5151679;27;20023;-71
2023/10/10 15:10:42;;;;;;;1.67;1.08;;;27.10;43.00;;;;;;5153349;27;20463;-71
2023/10/10 15:13:08;;;;;;;0.50;0.50;;;27.10;43.10;;;;;;5151435;27;20030;-70
2023/10/10 15:15:40;;;;;;;1.45;0.88;;;27.20;42.90;;;;;;5151944;27;20535;-70
2023/10/10 15:18:06;;;;;;;0.60;0.60;;;27.20;43.20;;;;;;5151701;27;20015;-70
2023/10/10 15:20:32;;;;;;;1.13;0.75;;;27.30;43.30;;;;;;5151511;27;20037;-69
2023/10/10 15:22:58;;;;;;;1.08;0.75;;;27.30;43.30;;;;;;5132301;27;20084;-69
2023/10/10 15:25:23;;;;;;;2.13;1.20;;;27.30;43.30;;;;;;5145490;27;20433;-69
2023/10/10 15:27:49;;;;;;;0.70;0.70;;;27.30;43.30;;;;;;5149216;27;20030;-69
2023/10/10 15:30:15;;;;;;;2.47;1.05;;;27.40;42.90;;;;;;5151305;27;20058;-69
2023/10/10 15:32:46;;;;;;;0.52;0.52;;;27.40;43.10;;;;;;5152633;27;20035;-69
2023/10/10 15:35:17;;;;;;;0.55;0.55;;;27.40;43.20;;;;;;5139649;27;20500;-69
2023/10/10 15:37:42;;;;;;;0.75;0.75;;;27.30;43.40;;;;;;5139575;27;20476;-68
2023/10/10 15:40:13;;;;;;;0.57;0.57;;;27.30;43.30;;;;;;5152113;27;20030;-69
2023/10/10 15:42:47;;;;;;;;;;;27.30;43.40;;;;;;5151112;27;20118;-69
2023/10/10 15:45:20;;;;;;;0.77;0.77;;;27.30;43.40;;;;;;5152693;27;19903;-69
2023/10/10 15:47:49;;;;;;;1.33;0.60;;;27.20;42.80;;;;;;5148869;27;20038;-70
2023/10/10 15:50:21;;;;;;;0.68;0.68;;;27.20;43.10;;;;;;5153051;27;20023;-69
2023/10/10 15:52:48;;;;;;;0.43;0.43;;;27.00;43.10;;;;;;5152773;27;20058;-69
2023/10/10 15:55:23;;;;;;;1.02;0.75;;;26.80;43.30;;;;;;5151121;27;20027;-69
2023/10/10 15:57:53;;;;;;;0.50;0.50;;;26.80;43.60;;;;;;5150060;27;20067;-69
2023/10/10 16:00:32;;;;;;;0.57;0.57;;;26.70;43.70;;;;;;5150041;27;20168;-69
2023/10/10 16:03:06;;;;;;;0.75;0.65;;;26.60;43.90;;;;;;5152193;27;20134;-69
2023/10/10 16:05:39;;;;;;;0.60;0.60;;;26.50;44.10;;;;;;5155554;27;20019;-69
2023/10/10 16:08:05;;;;;;;2.28;0.85;;;26.40;44.30;;;;;;5155955;27;20030;-70
2023/10/10 16:10:31;;;;;;;0.40;0.40;;;26.30;44.50;;;;;;5156226;27;20424;-70
2023/10/10 16:12:56;;;;;;;0.50;0.50;;;26.20;44.60;;;;;;5154564;27;20077;-67
2023/10/10 16:15:22;;;;;;;0.77;0.77;;;26.20;44.70;;;;;;5141758;27;20044;-69
2023/10/10 16:17:51;;;;;;;0.40;0.40;;;26.00;44.90;;;;;;5152928;27;20079;-69
2023/10/10 16:20:22;;;;;;;0.93;0.93;;;26.00;45.00;;;;;;5151063;27;20015;-69